Terminal Aerodrome Forecast
Issued by NWS

Home | Current Version | Previous Version | Graphics & Text | Print | Product List | Glossary On
Versions: 1 2 3 4 5 6 7 8 9 10 11 12 13 14 15 16
000
FTUS43 KICT 021731 CCA
TAFHUT
TAF COR
KHUT 021731Z 0218/0318 17015G25KT P6SM FEW040
     FM030100 17015KT P6SM SCT250
     FM031000 15010KT P6SM BKN025
     FM031500 18015G22KT P6SM SCT035=

USA.gov is the U.S. government's official web portal to all federal, state and local government web resources and services.